createdAt,value
2023-03-23T15:58:24.851Z,22.83
2023-03-23T16:00:53.809Z,24.65
2023-03-23T16:03:27.646Z,24.85
2023-03-23T16:05:57.630Z,24.55
2023-03-23T16:08:27.012Z,25.63
2023-03-23T16:10:54.940Z,24.80
2023-03-23T16:13:23.100Z,25.63
2023-03-23T16:15:51.669Z,25.58
2023-03-23T16:18:21.687Z,26.07
2023-03-23T16:20:50.881Z,24.80
2023-03-23T16:23:18.983Z,24.77
2023-03-23T16:25:51.057Z,24.73
2023-03-23T16:28:20.624Z,24.42
2023-03-23T16:30:51.254Z,24.15
2023-03-23T16:33:19.382Z,23.43
2023-03-23T16:35:47.585Z,23.77
2023-03-23T16:38:16.769Z,23.73
2023-03-23T16:40:45.893Z,24.38
2023-03-23T16:43:15.747Z,25.75
2023-03-23T16:45:45.820Z,24.58
2023-03-23T16:48:16.079Z,24.73
2023-03-23T16:50:45.552Z,24.83
2023-03-23T16:53:13.752Z,25.70
2023-03-23T16:55:42.348Z,24.65
2023-03-23T16:58:17.140Z,25.90
2023-03-23T17:00:49.776Z,22.92
2023-03-23T17:03:18.781Z,22.20
2023-03-23T17:05:48.620Z,22.70
2023-03-23T17:08:16.874Z,21.80
2023-03-23T17:10:45.390Z,21.35
2023-03-23T17:13:13.803Z,22.97
2023-03-23T17:15:46.078Z,21.48
2023-03-23T17:18:17.039Z,21.77
2023-03-23T17:20:45.219Z,21.23
2023-03-23T17:23:13.504Z,23.42
2023-03-23T17:25:41.848Z,22.73
2023-03-23T17:28:10.168Z,23.00
2023-03-23T17:30:41.165Z,23.17
2023-03-23T17:33:09.205Z,22.03
2023-03-23T17:35:38.667Z,21.52
2023-03-23T17:38:06.782Z,22.80
2023-03-23T17:40:34.955Z,22.33
2023-03-23T17:43:03.045Z,22.80
2023-03-23T17:45:31.072Z,22.50
2023-03-23T17:47:59.229Z,23.90
2023-03-23T17:50:27.733Z,23.20
2023-03-23T17:52:58.007Z,23.88
2023-03-23T17:55:26.075Z,23.48
2023-03-23T17:57:54.033Z,24.40
2023-03-23T18:00:22.694Z,22.20
2023-03-23T18:02:50.803Z,22.65
2023-03-23T18:05:18.889Z,23.92
2023-03-23T18:07:46.998Z,23.42
2023-03-23T18:10:17.225Z,22.60
2023-03-23T18:12:45.398Z,22.13
2023-03-23T18:15:13.498Z,22.25
2023-03-23T18:17:42.345Z,22.10
2023-03-23T18:20:10.833Z,21.80
2023-03-23T18:22:38.795Z,23.13
2023-03-23T18:25:07.212Z,21.10
2023-03-23T18:27:36.853Z,21.83
2023-03-23T18:30:05.619Z,20.50
2023-03-23T18:32:36.379Z,21.17
2023-03-23T18:35:04.880Z,21.88
2023-03-23T18:37:32.985Z,23.33
2023-03-23T18:40:01.027Z,23.70
2023-03-23T18:42:29.405Z,21.75
2023-03-23T18:44:59.954Z,22.05
2023-03-23T18:47:28.247Z,21.40
2023-03-23T18:49:56.650Z,22.25
2023-03-23T18:52:26.521Z,21.08
2023-03-23T18:54:54.909Z,22.23
2023-03-23T18:57:23.772Z,21.35
2023-03-23T18:59:52.430Z,21.75
2023-03-23T19:02:22.269Z,20.92
2023-03-23T19:04:50.739Z,21.00
2023-03-23T19:07:19.888Z,20.30
2023-03-23T19:09:48.165Z,21.48
2023-03-23T19:12:16.758Z,21.48
2023-03-23T19:14:44.773Z,21.88
2023-03-23T19:17:12.739Z,24.90
2023-03-23T19:19:43.147Z,23.40
2023-03-23T19:22:11.884Z,21.70
2023-03-23T19:24:40.031Z,21.55
2023-03-23T19:27:08.354Z,23.43
2023-03-23T19:29:36.671Z,23.65
2023-03-23T19:32:04.725Z,22.20
2023-03-23T19:34:32.662Z,21.55
2023-03-23T19:37:06.005Z,21.55
2023-03-23T19:39:39.107Z,21.88
2023-03-23T19:42:08.026Z,20.87
2023-03-23T19:44:36.039Z,22.50
2023-03-23T19:47:07.221Z,22.35
2023-03-23T19:49:35.743Z,21.90
2023-03-23T19:52:12.040Z,24.60
2023-03-23T19:54:42.238Z,23.40
2023-03-23T19:57:11.292Z,21.23
2023-03-23T19:59:39.794Z,22.40
2023-03-23T20:02:08.598Z,23.45
2023-03-23T20:04:37.213Z,23.95
2023-03-23T20:07:08.506Z,20.58
2023-03-23T20:09:38.267Z,22.42
2023-03-23T20:12:07.104Z,22.35
2023-03-23T20:14:36.966Z,22.88
2023-03-23T20:17:09.797Z,20.90
2023-03-23T20:19:38.264Z,21.90
2023-03-23T20:22:07.978Z,22.25
2023-03-23T20:24:38.062Z,22.70
2023-03-23T20:27:06.453Z,22.57
2023-03-23T20:29:35.036Z,20.77
2023-03-23T20:32:03.284Z,21.23
2023-03-23T20:34:31.631Z,22.40
2023-03-23T20:37:01.933Z,21.40
2023-03-23T20:39:33.085Z,19.75
2023-03-23T20:42:03.198Z,20.00
2023-03-23T20:44:35.138Z,20.73
2023-03-23T20:47:03.902Z,21.25
2023-03-23T20:49:32.105Z,20.73
2023-03-23T20:52:00.933Z,20.55
2023-03-23T20:54:30.236Z,21.85
2023-03-23T20:56:59.882Z,22.58
2023-03-23T20:59:28.010Z,22.77
2023-03-23T21:01:56.501Z,22.67
2023-03-23T21:04:27.360Z,21.13
2023-03-23T21:06:56.371Z,21.90
2023-03-23T21:09:24.765Z,22.30
2023-03-23T21:11:52.761Z,19.52
2023-03-23T21:14:22.426Z,20.53
2023-03-23T21:16:51.024Z,20.70
2023-03-23T21:19:19.664Z,19.73
2023-03-23T21:21:55.701Z,21.15
2023-03-23T21:24:26.474Z,19.85
2023-03-23T21:26:55.087Z,20.27
2023-03-23T21:29:24.886Z,21.17
2023-03-23T21:32:05.294Z,21.93
2023-03-23T21:34:36.168Z,22.52
2023-03-23T21:37:04.198Z,20.75
2023-03-23T21:39:32.301Z,20.50
2023-03-23T21:42:01.814Z,20.95
2023-03-23T21:44:35.017Z,21.80
2023-03-23T21:47:03.450Z,20.73
2023-03-23T21:49:34.039Z,22.77
2023-03-23T21:52:02.243Z,22.85
2023-03-23T21:54:31.069Z,22.55
2023-03-23T21:56:59.240Z,21.23
2023-03-23T21:59:27.854Z,22.05
2023-03-23T22:01:58.570Z,21.20
2023-03-23T22:04:28.048Z,21.88
2023-03-23T22:06:56.847Z,20.65
2023-03-23T22:09:25.105Z,21.65
2023-03-23T22:11:53.237Z,21.48
2023-03-23T22:14:21.600Z,21.98
2023-03-23T22:16:49.745Z,23.23
2023-03-23T22:19:19.335Z,23.98
2023-03-23T22:21:47.862Z,23.70
2023-03-23T22:24:15.978Z,22.87
2023-03-23T22:26:44.115Z,22.90
2023-03-23T22:29:12.690Z,23.80
2023-03-23T22:31:41.447Z,22.17
2023-03-23T22:34:09.800Z,22.07
2023-03-23T22:36:40.216Z,21.42
2023-03-23T22:39:09.813Z,21.67
2023-03-23T22:41:40.141Z,22.77
2023-03-23T22:44:12.806Z,22.38
2023-03-23T22:46:40.955Z,21.92
2023-03-23T22:49:09.160Z,21.92
2023-03-23T22:51:39.991Z,22.80
2023-03-23T22:54:08.503Z,20.37
2023-03-23T22:56:37.916Z,23.13
2023-03-23T22:59:07.050Z,21.42
2023-03-23T23:01:36.105Z,21.85
2023-03-23T23:04:05.196Z,22.08
2023-03-23T23:06:33.301Z,20.10
2023-03-23T23:09:02.783Z,22.60
2023-03-23T23:11:31.475Z,22.50
2023-03-23T23:13:59.598Z,24.60
2023-03-23T23:16:27.735Z,23.57
2023-03-23T23:18:56.082Z,24.33
2023-03-23T23:21:27.182Z,23.33
2023-03-23T23:23:55.339Z,24.33
2023-03-23T23:26:25.038Z,25.83
2023-03-23T23:28:53.235Z,23.00
2023-03-23T23:31:26.182Z,23.15
2023-03-23T23:33:56.163Z,24.13
2023-03-23T23:36:28.223Z,23.50
2023-03-23T23:38:56.605Z,23.52
2023-03-23T23:41:26.399Z,23.77
2023-03-23T23:43:54.936Z,24.53
2023-03-23T23:46:23.074Z,23.27
2023-03-23T23:48:51.202Z,23.75
2023-03-23T23:51:19.590Z,24.67
2023-03-23T23:53:53.274Z,23.83
2023-03-23T23:56:22.672Z,22.27
2023-03-23T23:58:52.702Z,24.52
